Time;durP1;ratioP1;P1;durP2;ratioP2;P2;SDS_P1;SDS_P2;PMS_P1;PMS_P2;Temp;Humidity;BMP_temperature;BMP_pressure;BME280_temperature;BME280_humidity;BME280_pressure;Samples;Min_cycle;Max_cycle;Signal;HPM_P1;HPM_P2
2022/02/20 05:00:14;;;;;;;7.78;5.95;;;4.00;99.90;;;;;;5935910;23;20287;-67
2022/02/20 05:02:41;;;;;;;9.13;5.70;;;4.00;99.90;;;;;;4929542;29;20226;-68
2022/02/20 05:05:10;;;;;;;6.05;4.93;;;4.00;99.90;;;;;;4927561;29;20206;-68
2022/02/20 05:07:37;;;;;;;8.18;5.85;;;4.00;99.90;;;;;;4929416;29;20558;-68
2022/02/20 05:10:04;;;;;;;6.50;5.57;;;4.00;99.90;;;;;;4933722;29;20260;-68
2022/02/20 05:12:31;;;;;;;6.90;4.72;;;4.10;99.90;;;;;;4920077;29;20671;-67
2022/02/20 05:14:58;;;;;;;7.45;6.35;;;4.10;99.90;;;;;;4915214;29;20289;-68
2022/02/20 05:17:26;;;;;;;12.43;6.47;;;4.00;99.90;;;;;;4926625;29;20197;-68
2022/02/20 05:19:52;;;;;;;9.73;6.15;;;4.10;99.90;;;;;;4931280;29;20202;-68
2022/02/20 05:22:19;;;;;;;9.93;6.72;;;4.10;99.90;;;;;;4915567;29;20226;-68
2022/02/20 05:24:46;;;;;;;11.40;7.72;;;4.10;99.90;;;;;;4917935;29;20262;-68
2022/02/20 05:27:13;;;;;;;9.38;6.15;;;4.10;99.90;;;;;;4927940;29;20237;-68
2022/02/20 05:29:39;;;;;;;8.90;6.15;;;4.10;99.90;;;;;;4924851;29;20575;-68
2022/02/20 05:32:07;;;;;;;10.38;6.60;;;4.10;99.90;;;;;;4931835;29;20701;-68
2022/02/20 05:34:35;;;;;;;9.15;6.15;;;4.10;99.90;;;;;;4916491;29;20671;-67
2022/02/20 05:37:01;;;;;;;9.52;7.97;;;4.00;99.90;;;;;;4917664;29;20206;-68
2022/02/20 05:39:28;;;;;;;11.02;6.85;;;4.10;99.90;;;;;;4924359;29;20210;-68
2022/02/20 05:41:55;;;;;;;11.02;7.30;;;4.10;99.90;;;;;;4933613;29;20233;-68
2022/02/20 05:44:21;;;;;;;12.98;7.15;;;4.10;99.90;;;;;;4931953;29;20217;-68
2022/02/20 05:46:48;;;;;;;8.38;6.88;;;4.10;99.90;;;;;;4915032;29;20234;-68
2022/02/20 05:49:14;;;;;;;8.98;6.72;;;4.10;99.90;;;;;;4928562;29;20210;-68
2022/02/20 05:51:42;;;;;;;15.25;8.90;;;4.10;99.90;;;;;;4933417;29;20279;-67
2022/02/20 05:54:09;;;;;;;9.93;7.07;;;4.10;99.90;;;;;;4921596;29;20269;-67
2022/02/20 05:56:36;;;;;;;11.15;7.28;;;4.10;99.90;;;;;;4933873;29;20257;-69
2022/02/20 05:59:03;;;;;;;14.63;8.43;;;4.10;99.90;;;;;;4921623;29;20206;-67
2022/02/20 06:01:31;;;;;;;10.75;7.05;;;4.10;99.90;;;;;;4925095;29;20654;-68
2022/02/20 06:03:58;;;;;;;12.50;7.72;;;4.10;99.90;;;;;;4931459;29;20262;-68
2022/02/20 06:06:30;;;;;;;12.77;7.22;;;4.10;99.90;;;;;;4918629;29;20318;-70
2022/02/20 06:08:59;;;;;;;10.20;7.43;;;4.10;99.90;;;;;;4928444;29;20705;-68
2022/02/20 06:11:25;;;;;;;9.90;6.55;;;4.10;99.90;;;;;;4931225;29;20277;-67
2022/02/20 06:13:52;;;;;;;10.77;6.88;;;4.10;99.90;;;;;;4931603;29;20221;-68
2022/02/20 06:16:19;;;;;;;11.10;7.22;;;4.10;99.90;;;;;;4930670;29;20211;-67
2022/02/20 06:18:46;;;;;;;11.93;7.13;;;4.10;99.90;;;;;;4929296;29;20202;-67
2022/02/20 06:21:13;;;;;;;9.95;6.38;;;4.10;99.90;;;;;;4933446;29;20359;-68
2022/02/20 06:23:40;;;;;;;11.05;7.15;;;4.20;99.90;;;;;;4922978;29;20235;-68
2022/02/20 06:26:09;;;;;;;12.07;7.40;;;4.10;99.90;;;;;;4922523;29;20271;-68
2022/02/20 06:28:35;;;;;;;9.50;6.70;;;4.20;99.90;;;;;;4930152;29;20205;-68
2022/02/20 06:31:02;;;;;;;11.52;7.57;;;4.10;99.90;;;;;;4951283;28;20292;-68
2022/02/20 06:33:29;;;;;;;8.20;6.65;;;4.10;99.90;;;;;;4936541;29;20198;-68
2022/02/20 06:35:56;;;;;;;9.10;6.90;;;4.20;99.90;;;;;;4935047;29;20209;-68
2022/02/20 06:38:22;;;;;;;11.98;7.32;;;4.20;99.90;;;;;;4919573;29;20272;-68
2022/02/20 06:40:49;;;;;;;8.63;6.63;;;4.20;99.90;;;;;;4923362;29;20226;-68
2022/02/20 06:43:17;;;;;;;11.23;7.30;;;4.20;99.90;;;;;;4930707;29;20282;-67
2022/02/20 06:45:44;;;;;;;18.00;11.23;;;4.20;99.90;;;;;;4921675;29;20202;-67
2022/02/20 06:48:10;;;;;;;11.60;7.65;;;4.20;99.90;;;;;;4936751;29;20214;-68
2022/02/20 06:50:37;;;;;;;9.98;6.63;;;4.20;99.90;;;;;;4918667;29;20230;-68
2022/02/20 06:53:05;;;;;;;12.27;6.50;;;4.20;99.90;;;;;;4918035;29;20210;-68
2022/02/20 06:55:32;;;;;;;9.93;6.60;;;4.20;99.90;;;;;;4934104;29;20202;-68
2022/02/20 06:57:59;;;;;;;9.68;7.25;;;4.30;99.90;;;;;;4931738;29;20206;-68
2022/02/20 07:00:27;;;;;;;9.18;6.38;;;4.30;99.90;;;;;;4931842;29;20271;-68
2022/02/20 07:02:54;;;;;;;9.10;6.25;;;4.30;99.90;;;;;;4930530;29;20264;-68
2022/02/20 07:05:22;;;;;;;10.32;6.50;;;4.30;99.90;;;;;;4934421;29;20210;-68
2022/02/20 07:07:48;;;;;;;9.25;6.72;;;4.30;99.90;;;;;;4936227;29;20226;-68
2022/02/20 07:10:15;;;;;;;13.30;7.72;;;4.30;99.90;;;;;;4946233;29;20209;-67
2022/02/20 07:12:42;;;;;;;14.43;6.75;;;4.30;99.90;;;;;;4931236;28;20214;-68
2022/02/20 07:15:09;;;;;;;9.48;6.00;;;4.30;99.90;;;;;;4935994;29;20227;-67
2022/02/20 07:17:37;;;;;;;8.77;6.50;;;4.30;99.90;;;;;;4934473;29;20277;-68
2022/02/20 07:20:06;;;;;;;8.52;5.90;;;4.40;99.90;;;;;;4935359;29;20206;-68
2022/02/20 07:22:34;;;;;;;10.13;6.40;;;4.40;99.90;;;;;;4935798;29;20249;-68
2022/02/20 07:25:00;;;;;;;11.38;7.85;;;4.40;99.90;;;;;;4930351;29;20210;-68
2022/02/20 07:27:27;;;;;;;7.97;5.78;;;4.40;99.90;;;;;;4913649;29;20234;-68
2022/02/20 07:29:54;;;;;;;11.73;7.20;;;4.40;99.90;;;;;;4916728;29;20277;-68
2022/02/20 07:32:20;;;;;;;9.88;5.60;;;4.50;99.90;;;;;;4919040;29;20225;-68
2022/02/20 07:34:48;;;;;;;7.30;5.80;;;4.50;99.90;;;;;;4922428;29;20203;-68
2022/02/20 07:37:15;;;;;;;7.45;5.50;;;4.50;99.90;;;;;;4917114;29;20256;-68
2022/02/20 07:39:42;;;;;;;6.60;5.20;;;4.40;99.90;;;;;;4920770;29;20206;-68
2022/02/20 07:42:09;;;;;;;6.80;5.60;;;4.50;99.90;;;;;;4935923;29;20226;-68
2022/02/20 07:44:35;;;;;;;6.78;5.50;;;4.50;99.90;;;;;;4940293;29;20280;-68
2022/02/20 07:47:02;;;;;;;6.32;5.30;;;4.50;99.90;;;;;;4936330;28;20316;-68
2022/02/20 07:49:29;;;;;;;8.68;6.10;;;4.50;99.90;;;;;;4930819;29;20217;-68
2022/02/20 07:51:57;;;;;;;7.43;5.45;;;4.50;99.90;;;;;;4932880;28;20278;-67
2022/02/20 07:54:24;;;;;;;7.97;4.82;;;4.60;99.90;;;;;;4928395;29;20273;-68
2022/02/20 07:56:52;;;;;;;6.22;5.57;;;4.60;99.90;;;;;;4934538;29;20639;-68
2022/02/20 07:59:19;;;;;;;5.50;5.00;;;4.60;99.90;;;;;;4934134;29;20312;-68
2022/02/20 08:01:48;;;;;;;7.25;5.18;;;4.60;99.90;;;;;;4934624;29;20230;-68
2022/02/20 08:04:14;;;;;;;4.88;4.25;;;4.60;99.90;;;;;;4934250;29;20217;-68
2022/02/20 08:06:41;;;;;;;4.85;4.30;;;4.60;99.90;;;;;;4935607;29;20277;-68
2022/02/20 08:09:09;;;;;;;5.63;4.97;;;4.60;99.90;;;;;;4926993;29;20206;-68
2022/02/20 08:11:36;;;;;;;5.03;4.57;;;4.50;99.90;;;;;;4928391;29;20237;-68
2022/02/20 08:14:05;;;;;;;4.95;4.18;;;4.60;99.90;;;;;;4927771;29;20206;-67
2022/02/20 08:16:32;;;;;;;4.47;4.07;;;4.50;99.90;;;;;;4934644;29;20608;-67
2022/02/20 08:18:59;;;;;;;5.95;4.60;;;4.60;99.90;;;;;;4923863;29;20289;-67
2022/02/20 08:21:26;;;;;;;5.13;4.75;;;4.50;99.90;;;;;;4920218;29;20774;-69
2022/02/20 08:23:52;;;;;;;6.00;4.50;;;4.50;99.90;;;;;;4926572;29;20209;-69
2022/02/20 08:26:21;;;;;;;6.72;5.00;;;4.50;99.90;;;;;;4928056;29;20213;-68
2022/02/20 08:28:48;;;;;;;5.50;4.07;;;4.50;99.90;;;;;;4930032;29;20577;-69
2022/02/20 08:31:15;;;;;;;4.55;4.00;;;4.60;99.90;;;;;;4934859;29;20269;-68
2022/02/20 08:33:42;;;;;;;3.72;3.42;;;4.60;99.90;;;;;;4932644;29;20304;-68
2022/02/20 08:36:09;;;;;;;4.78;3.53;;;4.60;99.90;;;;;;4915978;29;20218;-67
2022/02/20 08:38:36;;;;;;;5.10;4.65;;;4.60;99.90;;;;;;4925254;29;20252;-69
2022/02/20 08:41:03;;;;;;;4.50;3.97;;;4.60;99.90;;;;;;4927428;29;20222;-69
2022/02/20 08:43:31;;;;;;;6.35;4.43;;;4.60;99.90;;;;;;4938913;29;20284;-69
2022/02/20 08:45:58;;;;;;;5.72;5.05;;;4.60;99.90;;;;;;4934092;28;20210;-68
2022/02/20 08:48:24;;;;;;;7.15;5.40;;;4.60;99.90;;;;;;4931697;29;20226;-68
2022/02/20 08:50:51;;;;;;;6.82;5.53;;;4.60;99.90;;;;;;4915177;29;20891;-69
2022/02/20 08:53:18;;;;;;;5.82;5.22;;;4.60;99.90;;;;;;4923192;29;20659;-68
2022/02/20 08:55:45;;;;;;;14.25;9.57;;;4.60;99.90;;;;;;4930406;29;20654;-69
2022/02/20 08:58:11;;;;;;;15.00;9.35;;;4.60;99.90;;;;;;4942597;29;20300;-68
2022/02/20 09:00:39;;;;;;;7.10;5.47;;;4.60;99.90;;;;;;4933474;29;20661;-68
2022/02/20 09:03:06;;;;;;;16.92;10.90;;;4.60;99.90;;;;;;4920614;29;20206;-67
2022/02/20 09:05:33;;;;;;;52.05;24.70;;;4.60;99.90;;;;;;4934188;29;20219;-68
2022/02/20 09:07:59;;;;;;;9.02;6.32;;;4.60;99.90;;;;;;4924736;29;20313;-69
2022/02/20 09:10:26;;;;;;;17.33;11.98;;;4.60;99.90;;;;;;4928195;29;20210;-68
2022/02/20 09:12:53;;;;;;;12.60;8.25;;;4.60;99.90;;;;;;4930441;29;20576;-68
2022/02/20 09:15:19;;;;;;;11.40;7.05;;;4.70;99.90;;;;;;4936277;29;20210;-68
2022/02/20 09:17:48;;;;;;;47.38;25.10;;;4.60;99.90;;;;;;4932013;29;20652;-67
2022/02/20 09:20:14;;;;;;;27.90;17.08;;;4.60;99.90;;;;;;4924409;29;20659;-67
2022/02/20 09:22:42;;;;;;;11.20;9.40;;;4.60;99.90;;;;;;4928909;29;20213;-68
2022/02/20 09:25:09;;;;;;;11.73;9.32;;;4.50;99.90;;;;;;4934382;29;20280;-68
2022/02/20 09:27:36;;;;;;;8.82;7.65;;;4.50;99.90;;;;;;4930035;29;20636;-67
2022/02/20 09:30:04;;;;;;;6.15;5.72;;;4.50;99.90;;;;;;4922610;29;20574;-68
2022/02/20 09:32:31;;;;;;;8.40;7.15;;;4.50;99.90;;;;;;4923566;29;20274;-68
2022/02/20 09:35:00;;;;;;;6.80;6.20;;;4.50;99.90;;;;;;4933888;29;20222;-68
2022/02/20 09:37:27;;;;;;;7.78;7.05;;;4.50;99.90;;;;;;4939754;29;20681;-68
2022/02/20 09:39:53;;;;;;;7.25;5.97;;;4.50;99.90;;;;;;4943204;28;20206;-68
2022/02/20 09:42:20;;;;;;;6.10;5.40;;;4.50;99.90;;;;;;4932280;29;20225;-68
2022/02/20 09:44:48;;;;;;;8.82;6.35;;;4.40;99.90;;;;;;4933599;29;20260;-68
2022/02/20 09:47:15;;;;;;;5.72;5.20;;;4.30;99.90;;;;;;4927757;29;20226;-69
2022/02/20 09:49:45;;;;;;;5.10;4.35;;;4.30;99.90;;;;;;4916002;29;20289;-69
2022/02/20 09:52:13;;;;;;;3.88;3.50;;;4.30;99.90;;;;;;4924876;29;20236;-68
2022/02/20 09:54:40;;;;;;;4.75;4.30;;;4.20;99.90;;;;;;4914590;29;20210;-68
2022/02/20 09:57:06;;;;;;;4.00;3.67;;;4.20;99.90;;;;;;4932327;29;20202;-68
2022/02/20 09:59:33;;;;;;;4.60;4.20;;;4.20;99.90;;;;;;4928451;29;20202;-68
2022/02/20 10:02:05;;;;;;;5.45;4.95;;;4.20;99.90;;;;;;4927550;29;20234;-69
2022/02/20 10:04:40;;;;;;;6.50;4.78;;;4.20;99.90;;;;;;4922582;29;20229;-69
2022/02/20 10:07:08;;;;;;;6.25;5.65;;;4.20;99.90;;;;;;4915665;29;20312;-69
2022/02/20 10:09:39;;;;;;;5.63;5.13;;;4.20;99.90;;;;;;4915032;29;20218;-66
2022/02/20 10:12:21;;;;;;;5.32;4.82;;;4.20;99.90;;;;;;4928576;29;20229;-67
2022/02/20 10:14:48;;;;;;;6.55;4.45;;;4.20;99.90;;;;;;4928554;29;20707;-70
2022/02/20 10:17:17;;;;;;;4.70;4.07;;;4.20;99.90;;;;;;4931569;29;20212;-66
2022/02/20 10:19:55;;;;;;;4.70;4.30;;;4.20;99.90;;;;;;4926783;29;20205;-68
2022/02/20 10:22:27;;;;;;;4.30;3.90;;;4.20;99.90;;;;;;4931819;29;20717;-68
2022/02/20 10:25:09;;;;;;;4.53;4.18;;;4.20;99.90;;;;;;4932173;29;20663;-67
2022/02/20 10:27:38;;;;;;;4.07;3.78;;;4.20;99.90;;;;;;4943733;29;20287;-68
2022/02/20 10:30:19;;;;;;;3.35;2.50;;;4.20;99.90;;;;;;4933982;28;20639;-69
2022/02/20 10:32:52;;;;;;;4.15;3.75;;;4.20;99.90;;;;;;4925245;29;20210;-67
2022/02/20 10:35:19;;;;;;;2.83;2.63;;;4.20;99.90;;;;;;4922769;29;20210;-69
2022/02/20 10:37:46;;;;;;;4.30;3.90;;;4.10;99.90;;;;;;4920441;29;20636;-67
2022/02/20 10:40:29;;;;;;;6.53;5.45;;;4.10;99.90;;;;;;4914243;29;20710;-70
2022/02/20 10:42:57;;;;;;;3.40;3.20;;;4.10;99.90;;;;;;4915159;29;20218;-68
2022/02/20 10:45:29;;;;;;;6.18;5.53;;;4.10;99.90;;;;;;4917887;29;20206;-68
2022/02/20 10:47:56;;;;;;;3.17;2.72;;;4.10;99.90;;;;;;4921401;29;20639;-68
2022/02/20 10:50:25;;;;;;;4.05;3.85;;;4.10;99.90;;;;;;4927260;29;20206;-68
2022/02/20 10:53:06;;;;;;;3.33;3.13;;;4.10;99.90;;;;;;4925170;29;20214;-68
2022/02/20 10:55:38;;;;;;;2.17;2.13;;;4.10;99.90;;;;;;4914348;29;20302;-69
2022/02/20 10:58:16;;;;;;;1.65;1.55;;;4.10;99.90;;;;;;4920783;29;20206;-68
2022/02/20 11:00:48;;;;;;;3.05;2.95;;;4.10;99.90;;;;;;4917178;29;20266;-68
2022/02/20 11:03:15;;;;;;;3.58;3.38;;;4.10;99.90;;;;;;4914599;29;20647;-69
2022/02/20 11:05:43;;;;;;;3.45;3.25;;;4.10;99.90;;;;;;4920013;29;20216;-68
2022/02/20 11:08:11;;;;;;;2.80;2.70;;;4.10;99.90;;;;;;4931832;29;20588;-68
2022/02/20 11:10:40;;;;;;;3.05;2.90;;;4.20;99.90;;;;;;4935662;29;20230;-68
2022/02/20 11:13:12;;;;;;;2.88;2.70;;;4.20;99.90;;;;;;4931522;29;20242;-66
2022/02/20 11:15:40;;;;;;;3.50;3.30;;;4.30;99.90;;;;;;4927409;29;20268;-68
2022/02/20 11:18:08;;;;;;;3.97;3.78;;;4.30;99.90;;;;;;4935007;29;20211;-68
2022/02/20 11:20:39;;;;;;;4.22;4.03;;;4.40;99.90;;;;;;4934541;29;20633;-68
2022/02/20 11:23:07;;;;;;;3.72;3.50;;;4.50;99.90;;;;;;4945393;23;20289;-69
2022/02/20 11:25:36;;;;;;;3.30;3.15;;;4.50;99.90;;;;;;4911124;29;20765;-69
2022/02/20 11:28:06;;;;;;;3.10;2.90;;;4.50;99.90;;;;;;4909160;29;20222;-70
2022/02/20 11:30:34;;;;;;;3.10;2.90;;;4.50;99.90;;;;;;4904068;29;20544;-70
2022/02/20 11:33:03;;;;;;;3.00;2.80;;;4.60;99.90;;;;;;4910132;29;20207;-70
2022/02/20 11:35:31;;;;;;;3.95;3.65;;;4.60;99.90;;;;;;4912777;29;20737;-70
2022/02/20 11:38:04;;;;;;;3.80;3.15;;;4.70;99.90;;;;;;4910591;29;20210;-70
2022/02/20 11:40:31;;;;;;;3.17;2.97;;;4.70;99.90;;;;;;4917416;29;20218;-70
2022/02/20 11:43:12;;;;;;;3.30;3.10;;;4.80;99.90;;;;;;4912279;29;20265;-70
2022/02/20 11:46:04;;;;;;;4.07;3.17;;;4.80;99.90;;;;;;4917343;29;20233;-70
2022/02/20 11:48:32;;;;;;;4.50;4.18;;;4.90;99.90;;;;;;4908349;29;20227;-70
2022/02/20 11:51:13;;;;;;;16.75;12.38;;;4.90;99.90;;;;;;4911808;29;20270;-70
2022/02/20 11:53:40;;;;;;;7.15;6.50;;;5.00;99.90;;;;;;4932477;29;20223;-71
2022/02/20 11:56:09;;;;;;;5.07;4.57;;;5.10;99.90;;;;;;4918771;29;20210;-71
2022/02/20 11:58:37;;;;;;;6.00;5.47;;;5.20;99.90;;;;;;4908797;29;20214;-70
2022/02/20 12:01:09;;;;;;;5.13;4.70;;;5.30;99.90;;;;;;4907065;29;20205;-69
2022/02/20 12:04:07;;;;;;;5.15;4.65;;;5.40;99.90;;;;;;4916857;29;20286;-70
2022/02/20 12:06:37;;;;;;;3.72;3.40;;;5.60;99.90;;;;;;4908356;29;20203;-70
2022/02/20 12:09:22;;;;;;;5.20;4.80;;;5.70;99.90;;;;;;4898102;29;20550;-70
2022/02/20 12:11:49;;;;;;;4.80;4.28;;;5.80;99.90;;;;;;4905622;29;20222;-70
2022/02/20 12:14:22;;;;;;;3.35;3.25;;;5.90;99.90;;;;;;4908265;29;20255;-69
2022/02/20 12:16:51;;;;;;;3.70;3.47;;;6.00;99.90;;;;;;4898327;29;20578;-69
2022/02/20 12:19:20;;;;;;;4.90;4.22;;;6.20;99.90;;;;;;4913358;29;20206;-69
2022/02/20 12:22:01;;;;;;;5.03;4.63;;;6.50;99.90;;;;;;4913041;29;20210;-69
2022/02/20 12:24:40;;;;;;;3.97;3.88;;;6.50;99.90;;;;;;4916416;29;20257;-69
2022/02/20 12:27:11;;;;;;;4.22;4.03;;;6.50;99.90;;;;;;4928898;29;20208;-69
2022/02/20 12:29:46;;;;;;;6.97;4.60;;;6.40;99.90;;;;;;4916434;29;20695;-70
2022/02/20 12:32:18;;;;;;;8.20;6.57;;;6.40;99.90;;;;;;4917138;29;20217;-69
2022/02/20 12:34:55;;;;;;;7.13;5.18;;;6.50;99.90;;;;;;4923281;29;20218;-69
2022/02/20 12:37:24;;;;;;;4.90;4.50;;;6.60;99.90;;;;;;4935510;29;20217;-69
2022/02/20 12:39:58;;;;;;;5.75;5.22;;;6.70;99.90;;;;;;4933396;29;20205;-69
2022/02/20 12:42:26;;;;;;;6.55;5.95;;;6.70;99.90;;;;;;4929756;29;20213;-69
2022/02/20 12:45:02;;;;;;;4.18;3.80;;;6.80;99.90;;;;;;4922738;29;20224;-70
2022/02/20 12:47:36;;;;;;;4.50;4.18;;;6.90;99.90;;;;;;4930598;29;20209;-70
2022/02/20 12:50:05;;;;;;;6.22;5.63;;;6.90;99.90;;;;;;4913529;29;20201;-70
2022/02/20 12:52:33;;;;;;;6.10;5.50;;;7.00;99.90;;;;;;4921478;29;20214;-71
2022/02/20 12:55:00;;;;;;;6.07;5.57;;;7.00;99.90;;;;;;4926946;29;20568;-71
2022/02/20 12:57:28;;;;;;;9.27;6.15;;;7.10;99.90;;;;;;4935164;29;20214;-71
2022/02/20 12:59:58;;;;;;;3.90;3.70;;;7.20;99.90;;;;;;4919096;29;20207;-72
2022/02/20 13:02:33;;;;;;;3.90;3.80;;;7.30;99.90;;;;;;4927531;29;20261;-71
2022/02/20 13:05:20;;;;;;;4.15;3.88;;;7.40;99.90;;;;;;4896024;29;20238;-70
2022/02/20 13:07:50;;;;;;;4.47;4.18;;;7.40;99.90;;;;;;4913071;29;20222;-70
2022/02/20 13:10:20;;;;;;;3.08;2.90;;;7.40;99.90;;;;;;4908604;29;20207;-70
2022/02/20 13:13:01;;;;;;;3.40;3.20;;;7.50;99.90;;;;;;4896055;29;20207;-70
2022/02/20 13:15:31;;;;;;;3.60;3.00;;;7.60;99.90;;;;;;4896701;29;20274;-69
2022/02/20 13:18:04;;;;;;;3.72;3.40;;;7.60;99.90;;;;;;4905849;29;20656;-69
2022/02/20 13:20:36;;;;;;;4.30;4.00;;;7.80;99.90;;;;;;4916624;29;20326;-70
2022/02/20 13:23:21;;;;;;;4.15;3.85;;;7.80;99.90;;;;;;4912132;29;20327;-69
2022/02/20 13:25:49;;;;;;;3.30;3.05;;;7.90;99.90;;;;;;4907567;29;20206;-70
2022/02/20 13:28:17;;;;;;;4.93;4.70;;;7.90;99.90;;;;;;4903675;29;20246;-70
2022/02/20 13:30:46;;;;;;;4.53;4.13;;;8.00;99.90;;;;;;4925743;29;20776;-71
2022/02/20 13:33:15;;;;;;;3.55;3.28;;;8.10;99.90;;;;;;4916890;29;20237;-69
2022/02/20 13:35:43;;;;;;;3.38;3.28;;;8.10;99.90;;;;;;4934294;29;20213;-70
2022/02/20 13:38:19;;;;;;;4.97;3.47;;;8.20;99.90;;;;;;4922706;29;20206;-71
2022/02/20 13:40:50;;;;;;;3.20;3.10;;;8.30;99.90;;;;;;4918073;29;20683;-71
2022/02/20 13:43:18;;;;;;;7.32;3.50;;;8.40;99.90;;;;;;4922902;29;20231;-70
2022/02/20 13:45:55;;;;;;;3.33;3.08;;;8.60;99.90;;;;;;4914760;29;20684;-71
2022/02/20 13:48:30;;;;;;;5.03;3.95;;;8.70;99.90;;;;;;4911790;29;20277;-71
2022/02/20 13:51:11;;;;;;;11.95;9.23;;;8.80;99.90;;;;;;4913990;29;20269;-70
2022/02/20 13:53:38;;;;;;;25.00;11.32;;;8.80;99.90;;;;;;4908466;29;20231;-71
2022/02/20 13:56:06;;;;;;;6.68;4.82;;;8.90;99.90;;;;;;4902629;29;20297;-70
2022/02/20 13:58:32;;;;;;;6.80;4.30;;;9.00;99.90;;;;;;4908643;29;20579;-70
2022/02/20 14:01:02;;;;;;;9.25;7.00;;;9.00;99.90;;;;;;4903402;29;20214;-71
2022/02/20 14:03:29;;;;;;;5.32;3.97;;;9.00;99.90;;;;;;4913335;29;20317;-71
2022/02/20 14:05:56;;;;;;;5.30;4.90;;;9.10;99.90;;;;;;4913604;29;20262;-70
2022/02/20 14:08:23;;;;;;;5.53;4.03;;;9.10;99.90;;;;;;4913322;29;20226;-70
2022/02/20 14:10:53;;;;;;;4.88;4.10;;;9.20;99.90;;;;;;4907348;29;20215;-70
2022/02/20 14:13:20;;;;;;;9.32;3.80;;;9.20;99.90;;;;;;4895698;29;20231;-71
2022/02/20 14:15:57;;;;;;;7.68;3.92;;;9.30;99.90;;;;;;4896946;29;20215;-71
2022/02/20 14:18:25;;;;;;;2.95;2.72;;;9.30;99.90;;;;;;4904021;29;20286;-71
2022/02/20 14:20:54;;;;;;;9.50;4.28;;;9.30;99.90;;;;;;4919126;29;20213;-70
2022/02/20 14:23:24;;;;;;;7.35;5.25;;;9.30;99.90;;;;;;4915152;29;20234;-71
2022/02/20 14:25:52;;;;;;;7.15;4.47;;;9.30;99.90;;;;;;4914436;29;20239;-71
2022/02/20 14:28:20;;;;;;;6.32;4.60;;;9.30;99.90;;;;;;4913409;29;20640;-71
2022/02/20 14:30:47;;;;;;;11.20;6.20;;;9.40;99.90;;;;;;4914060;29;20278;-71
2022/02/20 14:33:15;;;;;;;5.32;4.22;;;9.40;99.90;;;;;;4914600;29;20265;-71
2022/02/20 14:35:45;;;;;;;6.32;4.72;;;9.30;99.90;;;;;;4914703;29;20584;-70
2022/02/20 14:38:14;;;;;;;6.30;4.65;;;9.40;99.90;;;;;;4914469;29;20206;-72
2022/02/20 14:40:41;;;;;;;7.38;4.90;;;9.40;99.90;;;;;;4897110;29;20207;-71
2022/02/20 14:43:10;;;;;;;5.43;4.60;;;9.30;99.90;;;;;;4895511;29;20222;-72
2022/02/20 14:45:39;;;;;;;6.97;4.38;;;9.40;99.90;;;;;;4899928;29;20588;-71
2022/02/20 14:48:06;;;;;;;7.30;4.07;;;9.40;99.90;;;;;;4899335;29;20207;-72
2022/02/20 14:50:36;;;;;;;3.72;3.38;;;9.30;99.90;;;;;;4899138;29;20238;-71
2022/02/20 14:53:05;;;;;;;6.47;4.25;;;9.30;99.90;;;;;;4898605;29;20253;-71
2022/02/20 14:55:31;;;;;;;6.57;4.85;;;9.30;99.90;;;;;;4915924;29;20270;-72
2022/02/20 14:57:58;;;;;;;8.30;5.38;;;9.30;99.90;;;;;;4918439;29;20270;-71
2022/02/20 15:00:26;;;;;;;4.78;3.45;;;9.30;99.90;;;;;;4929109;29;20198;-71
2022/02/20 15:02:52;;;;;;;6.10;5.45;;;9.30;99.90;;;;;;4902101;29;20283;-72
2022/02/20 15:05:19;;;;;;;6.57;3.55;;;9.30;99.90;;;;;;4913760;29;20204;-71
2022/02/20 15:07:46;;;;;;;3.30;3.10;;;9.30;99.90;;;;;;4910696;29;20572;-70
2022/02/20 15:10:14;;;;;;;3.30;3.00;;;9.30;99.90;;;;;;4909049;29;20226;-70
2022/02/20 15:12:41;;;;;;;4.18;3.72;;;9.30;99.90;;;;;;4909574;29;20202;-71
2022/02/20 15:15:09;;;;;;;3.20;3.00;;;9.30;99.90;;;;;;4901918;29;20263;-70
2022/02/20 15:17:36;;;;;;;5.78;3.03;;;9.20;99.90;;;;;;4916429;29;20575;-69
2022/02/20 15:20:04;;;;;;;4.43;2.83;;;9.20;99.90;;;;;;4900890;29;20211;-69
2022/02/20 15:22:31;;;;;;;6.43;4.78;;;9.20;99.90;;;;;;4901815;29;20210;-70
2022/02/20 15:24:57;;;;;;;2.10;1.90;;;9.20;99.90;;;;;;4912139;29;20243;-71
2022/02/20 15:27:25;;;;;;;3.13;2.83;;;9.20;99.90;;;;;;4907114;29;20206;-70
2022/02/20 15:29:52;;;;;;;2.72;2.50;;;9.20;99.90;;;;;;4913832;29;20234;-70
2022/02/20 15:32:19;;;;;;;3.80;2.22;;;9.20;99.90;;;;;;4917223;29;20214;-70
2022/02/20 15:34:46;;;;;;;3.55;3.25;;;9.20;99.90;;;;;;4906347;29;20230;-70
2022/02/20 15:37:13;;;;;;;3.35;3.05;;;9.20;99.90;;;;;;4912692;29;20214;-71
2022/02/20 15:39:42;;;;;;;3.30;3.10;;;9.20;99.90;;;;;;4913158;29;20266;-70
2022/02/20 15:42:10;;;;;;;3.00;2.90;;;9.20;99.90;;;;;;4910744;29;20347;-70
2022/02/20 15:44:39;;;;;;;2.80;2.60;;;9.20;99.90;;;;;;4913357;29;20235;-70
2022/02/20 15:47:06;;;;;;;2.90;2.70;;;9.20;99.90;;;;;;4916357;29;20209;-70
2022/02/20 15:49:33;;;;;;;2.75;2.58;;;9.20;99.90;;;;;;4912194;29;20284;-70
2022/02/20 15:52:00;;;;;;;2.95;2.72;;;9.20;99.90;;;;;;4916779;29;20679;-71
2022/02/20 15:54:27;;;;;;;3.20;2.95;;;9.20;99.90;;;;;;4916078;29;20234;-71
2022/02/20 15:56:54;;;;;;;5.55;2.85;;;9.20;99.90;;;;;;4910732;29;20258;-70
2022/02/20 15:59:22;;;;;;;3.53;2.28;;;9.20;99.90;;;;;;4915063;29;20210;-70
2022/02/20 16:01:50;;;;;;;2.30;2.30;;;9.20;99.90;;;;;;4910938;29;20246;-70
2022/02/20 16:04:17;;;;;;;3.25;2.92;;;9.20;99.90;;;;;;4913829;29;20653;-69
2022/02/20 16:06:44;;;;;;;2.95;2.75;;;9.20;99.90;;;;;;4916330;29;20253;-70
2022/02/20 16:09:11;;;;;;;4.32;2.95;;;9.20;99.90;;;;;;4914652;29;20270;-70
2022/02/20 16:11:38;;;;;;;4.10;2.53;;;9.20;99.90;;;;;;4913679;29;20258;-71
2022/02/20 16:14:04;;;;;;;2.67;2.35;;;9.20;99.90;;;;;;4907271;29;20234;-70
2022/02/20 16:16:31;;;;;;;3.08;2.28;;;9.20;99.90;;;;;;4905476;29;20262;-70
2022/02/20 16:19:01;;;;;;;3.28;3.05;;;9.20;99.90;;;;;;4912584;29;20217;-70
2022/02/20 16:21:28;;;;;;;3.60;2.72;;;9.20;99.90;;;;;;4911704;29;20215;-70
2022/02/20 16:23:55;;;;;;;3.72;2.72;;;9.20;99.90;;;;;;4915443;29;20238;-70
2022/02/20 16:26:22;;;;;;;2.25;2.15;;;9.20;99.90;;;;;;4908255;29;20300;-70
2022/02/20 16:28:52;;;;;;;2.65;2.55;;;9.20;99.90;;;;;;4909591;29;20277;-69
2022/02/20 16:31:19;;;;;;;2.20;2.10;;;9.20;99.90;;;;;;4915303;29;20218;-68
2022/02/20 16:33:46;;;;;;;3.60;3.30;;;9.20;99.90;;;;;;4915671;29;20235;-68
2022/02/20 16:36:14;;;;;;;2.30;2.20;;;9.20;99.90;;;;;;4908365;29;20698;-70
2022/02/20 16:38:42;;;;;;;2.28;1.88;;;9.20;99.90;;;;;;4909209;29;20576;-70
2022/02/20 16:41:10;;;;;;;2.70;2.50;;;9.20;99.90;;;;;;4910062;29;20699;-70
2022/02/20 16:43:38;;;;;;;3.60;3.40;;;9.20;99.90;;;;;;4907442;29;20672;-69
2022/02/20 16:46:05;;;;;;;2.50;2.40;;;9.20;99.90;;;;;;4905552;29;20339;-68
2022/02/20 16:48:32;;;;;;;1.92;1.83;;;9.20;99.90;;;;;;4916327;29;20215;-68
2022/02/20 16:51:01;;;;;;;2.20;2.10;;;9.20;99.90;;;;;;4916223;29;20313;-69
2022/02/20 16:53:31;;;;;;;2.08;1.98;;;9.20;99.90;;;;;;4928200;29;20228;-68
2022/02/20 16:56:00;;;;;;;4.90;4.45;;;9.20;99.90;;;;;;4918670;29;20557;-69
2022/02/20 16:58:27;;;;;;;3.33;3.10;;;9.20;99.90;;;;;;4918587;29;20302;-69
2022/02/20 17:00:55;;;;;;;3.30;2.95;;;9.20;99.90;;;;;;4911862;29;20663;-70
2022/02/20 17:03:22;;;;;;;2.17;2.17;;;9.20;99.90;;;;;;4911756;29;20319;-71
2022/02/20 17:05:49;;;;;;;2.40;2.30;;;9.20;99.90;;;;;;4920471;29;20667;-71
2022/02/20 17:08:15;;;;;;;1.60;1.60;;;9.20;99.90;;;;;;4909823;29;20215;-71
2022/02/20 17:10:43;;;;;;;3.00;1.95;;;9.20;99.90;;;;;;4905584;29;20286;-69
2022/02/20 17:13:10;;;;;;;2.35;2.15;;;9.20;99.90;;;;;;4908102;29;20218;-69
2022/02/20 17:15:37;;;;;;;1.30;1.30;;;9.20;99.90;;;;;;4909910;29;20211;-69
2022/02/20 17:18:05;;;;;;;1.75;1.65;;;9.20;99.90;;;;;;4907852;29;20207;-68
2022/02/20 17:20:32;;;;;;;2.30;2.10;;;9.20;99.90;;;;;;4927539;29;20313;-69
2022/02/20 17:22:58;;;;;;;1.50;1.40;;;9.20;99.90;;;;;;4923258;29;20207;-69
2022/02/20 17:25:25;;;;;;;1.23;1.23;;;9.20;99.90;;;;;;4906825;29;20648;-69
2022/02/20 17:27:54;;;;;;;2.60;2.50;;;9.20;99.90;;;;;;4908241;29;20266;-69
2022/02/20 17:30:21;;;;;;;1.55;1.45;;;9.20;99.90;;;;;;4900440;29;20223;-69
2022/02/20 17:32:50;;;;;;;2.33;2.20;;;9.20;99.90;;;;;;4896104;29;20275;-69
2022/02/20 17:35:16;;;;;;;2.00;1.63;;;9.20;99.90;;;;;;4900756;29;20230;-69
2022/02/20 17:37:47;;;;;;;2.10;2.00;;;9.20;99.90;;;;;;4916669;29;20734;-69
2022/02/20 17:40:15;;;;;;;1.70;1.60;;;9.20;99.90;;;;;;4902068;29;20266;-68
2022/02/20 17:42:44;;;;;;;1.73;1.63;;;9.20;99.90;;;;;;4896311;29;20318;-69
2022/02/20 17:45:12;;;;;;;20.83;13.60;;;9.20;99.90;;;;;;4902277;29;20235;-69
2022/02/20 17:47:39;;;;;;;9.07;6.15;;;9.20;99.90;;;;;;4904076;29;20233;-69
2022/02/20 17:50:07;;;;;;;3.88;3.40;;;9.30;99.90;;;;;;4906644;29;20222;-70
2022/02/20 17:52:34;;;;;;;5.75;5.25;;;9.20;99.90;;;;;;4909139;29;20373;-70
2022/02/20 17:55:01;;;;;;;6.38;5.00;;;9.20;99.90;;;;;;4897939;29;20235;-68
2022/02/20 17:57:28;;;;;;;4.18;2.83;;;9.30;99.90;;;;;;4919395;29;20218;-68
2022/02/20 17:59:55;;;;;;;2.17;1.80;;;9.30;99.90;;;;;;4915010;29;20210;-69
2022/02/20 18:02:23;;;;;;;2.50;2.40;;;9.40;99.90;;;;;;4925284;29;20643;-69